createdAt,value
2022-08-26T00:01:19.458Z,94945.13
2022-08-26T00:03:55.988Z,94942.13
2022-08-26T00:06:22.749Z,94947.78
2022-08-26T00:08:49.368Z,94946.34
2022-08-26T00:11:16.099Z,94947.00
2022-08-26T00:13:55.920Z,94942.84
2022-08-26T00:16:28.218Z,94944.72
2022-08-26T00:18:57.476Z,94940.78
2022-08-26T00:21:24.837Z,94938.88
2022-08-26T00:23:51.585Z,94932.91
2022-08-26T00:26:18.895Z,94930.25
2022-08-26T00:28:47.939Z,94934.88
2022-08-26T00:31:14.609Z,94934.03
2022-08-26T00:33:41.897Z,94940.09
2022-08-26T00:36:14.435Z,94936.34
2022-08-26T00:38:47.743Z,94931.94
2022-08-26T00:41:14.980Z,94935.78
2022-08-26T00:43:47.287Z,94943.69
2022-08-26T00:46:25.228Z,94938.97
2022-08-26T00:48:59.504Z,94945.19
2022-08-26T00:51:29.772Z,94946.66
2022-08-26T00:54:10.690Z,94945.03
2022-08-26T00:56:57.795Z,94938.03
2022-08-26T00:59:32.657Z,94932.63
2022-08-26T01:02:01.004Z,94943.69
2022-08-26T01:04:32.038Z,94941.66
2022-08-26T01:06:58.989Z,94939.59
2022-08-26T01:09:26.526Z,94944.91
2022-08-26T01:11:57.365Z,94941.22
2022-08-26T01:14:29.436Z,94947.72
2022-08-26T01:16:56.205Z,94955.25
2022-08-26T01:19:29.679Z,94956.59
2022-08-26T01:22:07.918Z,94951.09
2022-08-26T01:24:37.900Z,94954.06
2022-08-26T01:27:09.342Z,94949.50
2022-08-26T01:29:40.875Z,94945.66
2022-08-26T01:32:11.283Z,94953.47
2022-08-26T01:34:40.361Z,94948.03
2022-08-26T01:37:15.933Z,94946.91
2022-08-26T01:39:46.810Z,94950.41
2022-08-26T01:42:16.708Z,94945.28
2022-08-26T01:45:05.480Z,94946.75
2022-08-26T01:47:36.821Z,94940.56
2022-08-26T01:50:15.793Z,94949.84
2022-08-26T01:52:56.859Z,94950.59
2022-08-26T01:55:32.255Z,94955.75
2022-08-26T01:58:06.854Z,94955.72
2022-08-26T02:00:35.213Z,94967.63
2022-08-26T02:03:04.457Z,94967.09
2022-08-26T02:05:31.696Z,94968.44
2022-08-26T02:07:59.120Z,94958.88
2022-08-26T02:10:26.622Z,94957.63
2022-08-26T02:12:53.320Z,94960.97
2022-08-26T02:15:22.260Z,94962.88
2022-08-26T02:17:49.894Z,94960.78
2022-08-26T02:20:20.870Z,94965.28
2022-08-26T02:22:50.052Z,94964.56
2022-08-26T02:25:31.816Z,94967.63
2022-08-26T02:27:59.835Z,94967.53
2022-08-26T02:30:31.608Z,94977.59
2022-08-26T02:33:02.710Z,94969.50
2022-08-26T02:35:31.946Z,94965.44
2022-08-26T02:37:59.716Z,94965.16
2022-08-26T02:40:32.022Z,94964.38
2022-08-26T02:42:58.760Z,94961.34
2022-08-26T02:45:29.700Z,94960.44
2022-08-26T02:47:57.459Z,94956.72
2022-08-26T02:50:25.815Z,94957.50
2022-08-26T02:52:53.262Z,94963.00
2022-08-26T02:55:20.539Z,94958.28
2022-08-26T02:57:47.312Z,94955.03
2022-08-26T03:00:15.082Z,94947.66
2022-08-26T03:02:42.001Z,94953.41
2022-08-26T03:05:09.332Z,94958.84
2022-08-26T03:07:36.131Z,94954.41
2022-08-26T03:10:08.284Z,94953.81
2022-08-26T03:12:35.720Z,94955.16
2022-08-26T03:15:02.385Z,94953.75
2022-08-26T03:17:43.797Z,94951.13
2022-08-26T03:20:11.029Z,94956.31
2022-08-26T03:22:40.496Z,94950.19
2022-08-26T03:25:10.644Z,94960.56
2022-08-26T03:27:37.618Z,94965.31
2022-08-26T03:30:05.595Z,94969.41
2022-08-26T03:32:32.225Z,94955.03
2022-08-26T03:34:59.220Z,94962.59
2022-08-26T03:37:26.640Z,94958.13
2022-08-26T03:39:54.079Z,94947.59
2022-08-26T03:42:21.458Z,94949.34
2022-08-26T03:44:48.734Z,94956.13
2022-08-26T03:47:15.451Z,94948.28
2022-08-26T03:49:42.865Z,94959.06
2022-08-26T03:52:09.811Z,94950.22
2022-08-26T03:54:36.765Z,94954.78
2022-08-26T03:57:03.929Z,94953.56
2022-08-26T03:59:32.022Z,94955.66
2022-08-26T04:02:01.474Z,94955.88
2022-08-26T04:04:29.007Z,94959.03
2022-08-26T04:06:59.514Z,94956.00
2022-08-26T04:09:27.222Z,94952.28
2022-08-26T04:11:56.011Z,94960.19
2022-08-26T04:14:26.318Z,94960.03
2022-08-26T04:16:55.247Z,94959.13
2022-08-26T04:19:24.412Z,94968.88
2022-08-26T04:21:54.768Z,94967.06
2022-08-26T04:24:26.417Z,94966.41
2022-08-26T04:26:54.696Z,94971.06
2022-08-26T04:29:26.638Z,94965.91
2022-08-26T04:31:55.622Z,94964.50
2022-08-26T04:34:28.668Z,94971.84
2022-08-26T04:36:56.384Z,94965.00
2022-08-26T04:39:23.691Z,94976.88
2022-08-26T04:41:52.229Z,94965.09
2022-08-26T04:44:22.091Z,94968.84
2022-08-26T04:46:48.799Z,94962.94
2022-08-26T04:49:15.698Z,94966.06
2022-08-26T04:51:42.358Z,94975.38
2022-08-26T04:54:10.701Z,94964.19
2022-08-26T04:56:40.901Z,94968.13
2022-08-26T04:59:16.723Z,94968.91
2022-08-26T05:01:51.574Z,94964.16
2022-08-26T05:04:20.684Z,94959.56
2022-08-26T05:06:48.733Z,94963.03
2022-08-26T05:09:16.704Z,94954.25
2022-08-26T05:11:43.334Z,94956.75
2022-08-26T05:14:10.121Z,94957.22
2022-08-26T05:16:37.628Z,94967.91
2022-08-26T05:19:07.583Z,94968.81
2022-08-26T05:21:35.954Z,94960.94
2022-08-26T05:24:02.965Z,94960.75
2022-08-26T05:26:31.496Z,94964.72
2022-08-26T05:28:58.334Z,94968.59
2022-08-26T05:31:29.947Z,94968.72
2022-08-26T05:33:57.346Z,94965.31
2022-08-26T05:36:27.676Z,94967.50
2022-08-26T05:38:55.464Z,94962.81
2022-08-26T05:41:22.019Z,94968.22
2022-08-26T05:43:48.728Z,94968.28
2022-08-26T05:46:15.576Z,94970.53
2022-08-26T05:48:44.331Z,94968.16
2022-08-26T05:51:12.189Z,94968.53
2022-08-26T05:53:43.739Z,94973.34
2022-08-26T05:56:12.299Z,94988.19
2022-08-26T05:58:40.580Z,94991.53
2022-08-26T06:01:07.207Z,94982.44
2022-08-26T06:03:37.292Z,94991.19
2022-08-26T06:06:06.590Z,94980.03
2022-08-26T06:08:33.773Z,94987.22
2022-08-26T06:11:03.632Z,94984.66
2022-08-26T06:13:34.695Z,94983.88
2022-08-26T06:16:05.852Z,94995.03
2022-08-26T06:18:36.356Z,94988.97
2022-08-26T06:21:35.407Z,94993.13
2022-08-26T06:24:08.948Z,94993.44
2022-08-26T06:26:36.721Z,94996.94
2022-08-26T06:29:05.048Z,95002.63
2022-08-26T06:31:33.469Z,95005.50
2022-08-26T06:34:01.316Z,94984.63
2022-08-26T06:36:30.199Z,94999.16
2022-08-26T06:39:01.599Z,95001.22
2022-08-26T06:41:28.616Z,94997.41
2022-08-26T06:43:56.628Z,94999.47
2022-08-26T06:46:23.381Z,95000.91
2022-08-26T06:48:54.001Z,95003.28
2022-08-26T06:51:28.255Z,95014.47
2022-08-26T06:53:57.598Z,95008.09
2022-08-26T06:56:33.023Z,95014.13
2022-08-26T06:59:00.198Z,95010.94
2022-08-26T07:01:32.691Z,95009.16
2022-08-26T07:04:01.527Z,95004.09
2022-08-26T07:06:28.660Z,95015.25
2022-08-26T07:09:01.237Z,95010.63
2022-08-26T07:11:31.656Z,95014.91
2022-08-26T07:13:58.665Z,95022.88
2022-08-26T07:16:26.461Z,95018.91
2022-08-26T07:18:54.883Z,95024.16
2022-08-26T07:21:23.062Z,95020.63
2022-08-26T07:23:51.640Z,95021.91
2022-08-26T07:26:23.169Z,95022.53
2022-08-26T07:28:53.761Z,95026.06
2022-08-26T07:31:23.776Z,95024.84
2022-08-26T07:33:51.197Z,95028.97
2022-08-26T07:36:20.469Z,95027.63
2022-08-26T07:38:47.383Z,95037.28
2022-08-26T07:41:17.460Z,95034.66
2022-08-26T07:43:44.631Z,95039.25
2022-08-26T07:46:16.379Z,95044.44
2022-08-26T07:48:46.075Z,95039.19
2022-08-26T07:51:15.124Z,95037.88
2022-08-26T07:53:47.929Z,95039.16
2022-08-26T07:56:18.905Z,95037.59
2022-08-26T07:58:50.882Z,95039.94
2022-08-26T08:01:24.523Z,95039.38
2022-08-26T08:03:54.220Z,95038.63
2022-08-26T08:06:27.161Z,95042.94
2022-08-26T08:08:54.505Z,95044.88
2022-08-26T08:11:22.212Z,95037.50
2022-08-26T08:13:55.991Z,95040.47
2022-08-26T08:16:28.423Z,95034.53
2022-08-26T08:18:59.209Z,95031.31
2022-08-26T08:21:29.078Z,95028.78
2022-08-26T08:23:57.280Z,95024.63
2022-08-26T08:26:25.538Z,95022.44
2022-08-26T08:28:57.190Z,95026.09
2022-08-26T08:31:56.018Z,95022.91
2022-08-26T08:34:18.381Z,95019.72
2022-08-26T08:36:45.898Z,95020.84
2022-08-26T08:39:12.812Z,95022.78
2022-08-26T08:41:57.969Z,95017.81
2022-08-26T08:47:12.729Z,95021.66
2022-08-26T08:49:39.529Z,95026.84
2022-08-26T08:52:27.677Z,95032.38
2022-08-26T08:54:55.830Z,95037.41
2022-08-26T08:57:39.488Z,95044.44
2022-08-26T09:00:16.238Z,95046.22
2022-08-26T09:02:56.010Z,95044.91
2022-08-26T09:05:30.973Z,95052.59
2022-08-26T09:08:04.688Z,95054.84
2022-08-26T09:10:40.438Z,95049.75
2022-08-26T09:13:13.806Z,95055.16
2022-08-26T09:15:58.805Z,95052.84
2022-08-26T09:18:51.509Z,95061.81
2022-08-26T09:21:20.410Z,95062.91
2022-08-26T09:23:50.527Z,95059.97
2022-08-26T09:26:28.746Z,95060.16
2022-08-26T09:29:04.244Z,95058.88
2022-08-26T09:31:34.166Z,95059.78
2022-08-26T09:34:20.596Z,95060.94
2022-08-26T09:36:58.547Z,95061.69
2022-08-26T09:39:25.191Z,95065.66
2022-08-26T09:42:21.146Z,95065.56
2022-08-26T09:44:56.899Z,95058.84
2022-08-26T09:47:39.096Z,95077.59
2022-08-26T09:50:23.504Z,95070.00
2022-08-26T09:53:20.997Z,95065.78
2022-08-26T09:55:51.770Z,95068.91
2022-08-26T09:58:30.744Z,95064.22
2022-08-26T10:01:02.554Z,95066.25
2022-08-26T10:03:33.912Z,95055.81
2022-08-26T10:06:06.346Z,95057.31
2022-08-26T10:08:40.994Z,95061.25
2022-08-26T10:11:20.967Z,95061.84
2022-08-26T10:14:00.551Z,95054.09
2022-08-26T10:17:01.767Z,95054.81
2022-08-26T10:19:41.720Z,95060.41
2022-08-26T10:22:40.575Z,95049.75
2022-08-26T10:25:15.227Z,95050.31
2022-08-26T10:27:49.513Z,95055.00
2022-08-26T10:30:23.685Z,95053.09
2022-08-26T10:32:52.013Z,95054.69
2022-08-26T10:35:19.722Z,95048.34
2022-08-26T10:37:56.339Z,95046.75
2022-08-26T10:40:25.698Z,95050.91
2022-08-26T10:42:58.283Z,95049.28
2022-08-26T10:45:29.122Z,95050.22
2022-08-26T10:48:05.115Z,95050.31
2022-08-26T10:50:47.450Z,95049.53
2022-08-26T10:53:17.913Z,95051.56
2022-08-26T10:55:59.824Z,95046.06
2022-08-26T10:58:54.825Z,95046.50
2022-08-26T11:01:44.329Z,95048.06
2022-08-26T11:04:35.281Z,95045.28
2022-08-26T11:07:28.915Z,95046.00
2022-08-26T11:10:04.829Z,95043.81
2022-08-26T11:12:34.448Z,95045.94
2022-08-26T11:15:30.963Z,95040.06
2022-08-26T11:18:03.808Z,95049.31
2022-08-26T11:20:35.236Z,95047.53
2022-08-26T11:23:20.187Z,95048.66
2022-08-26T11:25:57.004Z,95048.97
2022-08-26T11:28:48.363Z,95049.78
2022-08-26T11:31:37.911Z,95046.09
2022-08-26T11:34:07.255Z,95041.47
2022-08-26T11:36:40.118Z,95036.75
2022-08-26T11:39:54.018Z,95033.44
2022-08-26T11:42:44.861Z,95041.41
2022-08-26T11:45:39.981Z,95037.94
2022-08-26T11:48:18.552Z,95033.50
2022-08-26T11:51:00.135Z,95033.66
2022-08-26T11:53:29.877Z,95034.78
2022-08-26T11:56:01.557Z,95034.13
2022-08-26T11:58:29.510Z,95030.19
2022-08-26T12:00:58.033Z,95029.63
2022-08-26T12:03:45.676Z,95025.94
2022-08-26T12:06:43.448Z,95024.19
2022-08-26T12:09:22.222Z,95021.91
2022-08-26T12:11:49.128Z,95015.56
2022-08-26T12:14:23.527Z,95015.56
2022-08-26T12:16:52.658Z,95010.53
2022-08-26T12:19:29.049Z,95020.22
2022-08-26T12:22:34.546Z,95022.28
2022-08-26T12:25:11.478Z,95013.03
2022-08-26T12:27:44.249Z,95010.09
2022-08-26T12:30:14.050Z,95013.97
2022-08-26T12:32:51.101Z,95013.69
2022-08-26T12:35:24.414Z,95012.75
2022-08-26T12:37:54.287Z,95005.13
2022-08-26T12:40:45.412Z,95005.59
2022-08-26T12:43:15.026Z,95011.28
2022-08-26T12:45:54.591Z,95010.81
2022-08-26T12:48:34.844Z,95003.00
2022-08-26T12:51:03.616Z,94996.94
2022-08-26T12:53:34.453Z,94994.13
2022-08-26T12:56:37.193Z,94991.53
2022-08-26T12:59:07.935Z,94996.63
2022-08-26T13:01:44.152Z,94990.63
2022-08-26T13:04:38.854Z,94984.28
2022-08-26T13:07:24.066Z,94988.13
2022-08-26T13:09:54.320Z,94987.94
2022-08-26T13:12:31.667Z,94984.69
2022-08-26T13:15:00.481Z,94978.72
2022-08-26T13:17:28.979Z,94978.50
2022-08-26T13:19:59.016Z,94980.88
2022-08-26T13:22:29.534Z,94983.38
2022-08-26T13:24:56.953Z,94985.72
2022-08-26T13:27:26.030Z,94985.69
2022-08-26T13:29:53.707Z,94982.34
2022-08-26T13:32:21.690Z,94983.75
2022-08-26T13:34:56.225Z,94980.31
2022-08-26T13:37:34.555Z,94980.31
2022-08-26T13:40:06.406Z,94972.31
2022-08-26T13:42:33.388Z,94970.94
2022-08-26T13:45:01.329Z,94971.09
2022-08-26T13:47:28.004Z,94971.59
2022-08-26T13:49:57.854Z,94966.22
2022-08-26T13:52:30.609Z,94964.47
2022-08-26T13:54:59.066Z,94960.44
2022-08-26T13:57:26.231Z,94956.13
2022-08-26T13:59:52.975Z,94957.91
2022-08-26T14:02:20.165Z,94955.59
2022-08-26T14:04:46.846Z,94953.34
2022-08-26T14:07:13.706Z,94954.53
2022-08-26T14:09:40.447Z,94947.84
2022-08-26T14:12:07.388Z,94934.06
2022-08-26T14:14:34.232Z,94938.28
2022-08-26T14:17:01.561Z,94945.22
2022-08-26T14:19:30.002Z,94942.81
2022-08-26T14:21:57.265Z,94941.44
2022-08-26T14:24:23.909Z,94943.00
2022-08-26T14:26:50.549Z,94940.94
2022-08-26T14:29:17.345Z,94938.47
2022-08-26T14:31:44.339Z,94929.16
2022-08-26T14:34:13.971Z,94928.56
2022-08-26T14:36:40.634Z,94928.38
2022-08-26T14:39:10.795Z,94927.66
2022-08-26T14:41:45.474Z,94922.72
2022-08-26T14:44:25.781Z,94918.44
2022-08-26T14:46:54.355Z,94916.16
2022-08-26T14:49:28.010Z,94919.34
2022-08-26T14:51:55.058Z,94913.91
2022-08-26T14:54:21.779Z,94917.59
2022-08-26T14:57:00.006Z,94921.56
2022-08-26T14:59:32.462Z,94915.91
2022-08-26T15:01:59.519Z,94921.88
2022-08-26T15:04:27.209Z,94909.13
2022-08-26T15:06:56.302Z,94914.97
2022-08-26T15:09:23.695Z,94912.44
2022-08-26T15:11:51.533Z,94907.31
2022-08-26T15:14:19.904Z,94908.56
2022-08-26T15:16:49.094Z,94912.84
2022-08-26T15:19:16.254Z,94915.16
2022-08-26T15:21:43.005Z,94900.72
2022-08-26T15:24:09.638Z,94908.50
2022-08-26T15:26:36.262Z,94910.75
2022-08-26T15:29:05.235Z,94904.84
2022-08-26T15:31:33.521Z,94910.78
2022-08-26T15:34:04.210Z,94914.16
2022-08-26T15:36:31.974Z,94909.56
2022-08-26T15:39:00.926Z,94904.66
2022-08-26T15:41:28.583Z,94905.66
2022-08-26T15:43:55.466Z,94897.94
2022-08-26T15:46:22.299Z,94894.97
2022-08-26T15:48:51.648Z,94894.06
2022-08-26T15:51:25.050Z,94893.88
2022-08-26T15:53:53.910Z,94894.72
2022-08-26T15:56:22.955Z,94893.00
2022-08-26T15:58:49.562Z,94895.34
2022-08-26T16:01:16.406Z,94897.16
2022-08-26T16:03:55.296Z,94905.75
2022-08-26T16:06:25.448Z,94902.13
2022-08-26T16:08:52.074Z,94910.16
2022-08-26T16:11:18.735Z,94921.50
2022-08-26T16:13:46.257Z,94916.91
2022-08-26T16:16:12.932Z,94923.50
2022-08-26T16:18:39.983Z,94924.59
2022-08-26T16:21:13.141Z,94933.81
2022-08-26T16:23:45.000Z,94937.69
2022-08-26T16:26:18.688Z,94931.88
2022-08-26T16:28:45.896Z,94922.13
2022-08-26T16:31:13.248Z,94925.88
2022-08-26T16:33:40.242Z,94923.53
2022-08-26T16:36:09.045Z,94927.28
2022-08-26T16:38:36.890Z,94925.16
2022-08-26T16:41:05.102Z,94921.31
2022-08-26T16:43:31.874Z,94921.00
2022-08-26T16:45:58.614Z,94927.56
2022-08-26T16:48:25.490Z,94927.31
2022-08-26T16:50:52.255Z,94919.59
2022-08-26T16:53:19.267Z,94923.41
2022-08-26T16:55:48.371Z,94916.38
2022-08-26T16:58:15.673Z,94922.06
2022-08-26T17:00:42.533Z,94912.38
2022-08-26T17:03:09.597Z,94914.03
2022-08-26T17:05:36.494Z,94909.56
2022-08-26T17:08:04.845Z,94908.72
2022-08-26T17:10:32.760Z,94909.06
2022-08-26T17:13:00.069Z,94923.53
2022-08-26T17:15:26.962Z,94917.03
2022-08-26T17:17:54.544Z,94917.34
2022-08-26T17:20:23.577Z,94924.72
2022-08-26T17:22:53.061Z,94915.44
2022-08-26T17:25:29.779Z,94919.31
2022-08-26T17:30:28.015Z,94920.16
2022-08-26T17:32:58.031Z,94917.63
2022-08-26T17:35:26.470Z,94913.25
2022-08-26T17:37:53.570Z,94906.56
2022-08-26T17:40:24.401Z,94906.69
2022-08-26T17:42:51.777Z,94900.09
2022-08-26T17:47:45.672Z,94903.16
2022-08-26T17:50:16.264Z,94904.66
2022-08-26T17:52:44.199Z,94913.97
2022-08-26T17:55:14.257Z,94915.19
2022-08-26T17:57:53.290Z,94913.69
2022-08-26T18:00:22.758Z,94913.16
2022-08-26T18:02:49.395Z,94910.25
2022-08-26T18:05:16.608Z,94906.94
2022-08-26T18:07:44.284Z,94914.22
2022-08-26T18:10:14.533Z,94913.91
2022-08-26T18:12:41.611Z,94913.97
2022-08-26T18:15:10.990Z,94912.78
2022-08-26T18:17:38.874Z,94915.06
2022-08-26T18:20:08.462Z,94918.16
2022-08-26T18:22:35.098Z,94922.56
2022-08-26T18:25:01.793Z,94932.13
2022-08-26T18:27:28.422Z,94925.69
2022-08-26T18:29:55.087Z,94922.69
2022-08-26T18:32:21.730Z,94935.44
2022-08-26T18:34:48.339Z,94938.50
2022-08-26T18:37:15.260Z,94940.47
2022-08-26T18:39:41.915Z,94936.84
2022-08-26T18:42:08.975Z,94942.50
2022-08-26T18:44:36.249Z,94940.31
2022-08-26T18:47:02.976Z,94943.88
2022-08-26T18:49:29.740Z,94945.72
2022-08-26T18:51:56.420Z,94952.16
2022-08-26T18:54:23.071Z,94951.88
2022-08-26T18:56:49.894Z,94955.41
2022-08-26T18:59:16.505Z,94952.22
2022-08-26T19:01:43.623Z,94957.09
2022-08-26T19:04:12.865Z,94956.41
2022-08-26T19:06:42.333Z,94961.25
2022-08-26T19:09:11.881Z,94956.56
2022-08-26T19:11:42.915Z,94948.38
2022-08-26T19:14:15.968Z,94946.59
2022-08-26T19:16:45.914Z,94957.19
2022-08-26T19:19:14.209Z,94955.31
2022-08-26T19:21:41.031Z,94951.47
2022-08-26T19:24:11.262Z,94953.53
2022-08-26T19:26:38.166Z,94960.09
2022-08-26T19:29:08.374Z,94955.88
2022-08-26T19:31:35.283Z,94949.84
2022-08-26T19:34:02.030Z,94956.75
2022-08-26T19:36:30.784Z,94955.06
2022-08-26T19:38:58.237Z,94959.56
2022-08-26T19:41:37.023Z,94956.72
2022-08-26T19:44:14.458Z,94958.38
2022-08-26T19:46:41.338Z,94960.31
2022-08-26T19:49:10.698Z,94961.31
2022-08-26T19:51:37.358Z,94964.44
2022-08-26T19:54:04.588Z,94960.31
2022-08-26T19:56:31.269Z,94959.34
2022-08-26T19:58:57.924Z,94963.53
2022-08-26T20:01:25.076Z,94958.91
2022-08-26T20:03:51.794Z,94958.66
2022-08-26T20:06:19.086Z,94961.16
2022-08-26T20:08:46.083Z,94967.06
2022-08-26T20:11:16.651Z,94960.03
2022-08-26T20:13:45.932Z,94968.53
2022-08-26T20:16:14.174Z,94961.03
2022-08-26T20:18:42.174Z,94958.31
2022-08-26T20:21:08.810Z,94959.00
2022-08-26T20:23:35.690Z,94955.84
2022-08-26T20:26:02.728Z,94956.00
2022-08-26T20:28:29.824Z,94958.56
2022-08-26T20:30:56.533Z,94963.34
2022-08-26T20:33:23.300Z,94961.13
2022-08-26T20:35:49.941Z,94959.66
2022-08-26T20:38:20.939Z,94958.06
2022-08-26T20:40:48.839Z,94952.66
2022-08-26T20:43:15.471Z,94957.56
2022-08-26T20:45:42.306Z,94956.47
2022-08-26T20:48:12.314Z,94962.22
2022-08-26T20:50:39.223Z,94964.94
2022-08-26T20:53:08.529Z,94963.56
2022-08-26T20:55:35.223Z,94964.84
2022-08-26T20:58:01.851Z,94964.56
2022-08-26T21:00:28.832Z,94976.53
2022-08-26T21:02:55.538Z,94978.66
2022-08-26T21:05:22.766Z,94974.53
2022-08-26T21:07:49.414Z,94983.28
2022-08-26T21:10:16.152Z,94975.91
2022-08-26T21:12:43.877Z,94975.28
2022-08-26T21:15:10.788Z,94976.34
2022-08-26T21:17:37.419Z,94978.44
2022-08-26T21:20:04.624Z,94982.56
2022-08-26T21:22:31.267Z,94983.16
2022-08-26T21:24:57.887Z,94983.41
2022-08-26T21:27:26.451Z,94982.94
2022-08-26T21:29:54.600Z,94979.78
2022-08-26T21:32:21.256Z,94976.72
2022-08-26T21:34:47.941Z,94987.41
2022-08-26T21:37:16.890Z,94982.94
2022-08-26T21:39:43.974Z,94974.97
2022-08-26T21:42:10.625Z,94978.34
2022-08-26T21:44:37.385Z,94970.00
2022-08-26T21:47:04.174Z,94973.16
2022-08-26T21:49:31.220Z,94969.47
2022-08-26T21:51:57.840Z,94976.34
2022-08-26T21:54:24.448Z,94971.94
2022-08-26T21:56:51.360Z,94973.00
2022-08-26T21:59:19.006Z,94968.50
2022-08-26T22:01:46.359Z,94962.97
2022-08-26T22:04:15.776Z,94967.88
2022-08-26T22:06:46.431Z,94968.16
2022-08-26T22:09:15.637Z,94966.38
2022-08-26T22:11:42.764Z,94976.38
2022-08-26T22:14:09.846Z,94975.88
2022-08-26T22:16:37.221Z,94974.03
2022-08-26T22:19:03.902Z,94970.78
2022-08-26T22:21:30.594Z,94974.97
2022-08-26T22:23:58.202Z,94985.63
2022-08-26T22:26:27.986Z,94973.97
2022-08-26T22:28:58.566Z,94976.16
2022-08-26T22:31:35.270Z,94972.06
2022-08-26T22:34:06.502Z,94982.44
2022-08-26T22:36:33.142Z,94976.91
2022-08-26T22:39:01.022Z,94983.16
2022-08-26T22:41:27.731Z,94985.75
2022-08-26T22:43:55.255Z,94992.22
2022-08-26T22:46:27.286Z,94992.25
2022-08-26T22:48:54.670Z,94990.72
2022-08-26T22:51:22.042Z,94993.47
2022-08-26T22:53:49.168Z,94988.88
2022-08-26T22:56:16.464Z,94979.47
2022-08-26T22:58:43.083Z,94990.41
2022-08-26T23:01:09.918Z,94992.00
2022-08-26T23:03:40.535Z,94996.19
2022-08-26T23:06:09.347Z,94996.47
2022-08-26T23:08:36.589Z,94998.75
2022-08-26T23:11:08.856Z,94977.91
2022-08-26T23:13:35.702Z,94985.38
2022-08-26T23:16:07.083Z,94983.06
2022-08-26T23:18:33.843Z,94984.75
2022-08-26T23:21:00.910Z,94984.38
2022-08-26T23:23:27.709Z,94983.03
2022-08-26T23:25:55.483Z,94980.09
2022-08-26T23:28:23.402Z,94973.75
2022-08-26T23:30:50.371Z,94967.34
2022-08-26T23:33:17.089Z,94973.56
2022-08-26T23:35:44.281Z,94969.97
2022-08-26T23:38:11.783Z,94969.97
2022-08-26T23:40:41.650Z,94969.00
2022-08-26T23:43:10.136Z,94970.06
2022-08-26T23:45:37.118Z,94961.28
2022-08-26T23:48:06.174Z,94962.44
2022-08-26T23:50:32.992Z,94960.03
2022-08-26T23:52:59.693Z,94960.59
2022-08-26T23:55:26.320Z,94957.84
2022-08-26T23:57:52.978Z,94953.56
